createdAt,value
2019-02-26T00:01:21.061Z,8.34
2019-02-26T00:03:52.049Z,8.34
2019-02-26T00:06:24.838Z,8.37
2019-02-26T00:08:56.613Z,8.38
2019-02-26T00:11:28.233Z,8.39
2019-02-26T00:13:59.017Z,8.39
2019-02-26T00:16:29.333Z,8.39
2019-02-26T00:19:02.660Z,8.42
2019-02-26T00:21:31.104Z,8.47
2019-02-26T00:24:01.749Z,8.48
2019-02-26T00:26:31.614Z,8.48
2019-02-26T00:29:01.837Z,8.48
2019-02-26T00:31:32.823Z,8.49
2019-02-26T00:34:02.669Z,8.46
2019-02-26T00:36:33.739Z,8.45
2019-02-26T00:39:05.164Z,8.45
2019-02-26T00:41:35.974Z,8.40
2019-02-26T00:44:06.608Z,8.40
2019-02-26T00:46:37.593Z,8.40
2019-02-26T00:49:08.257Z,8.36
2019-02-26T00:51:39.802Z,8.34
2019-02-26T00:54:12.233Z,8.22
2019-02-26T00:56:41.912Z,8.22
2019-02-26T00:59:11.567Z,8.24
2019-02-26T01:01:44.070Z,8.24
2019-02-26T01:04:14.373Z,8.15
2019-02-26T01:06:44.207Z,8.15
2019-02-26T01:09:15.461Z,8.11
2019-02-26T01:11:47.539Z,8.11
2019-02-26T01:14:18.591Z,8.10
2019-02-26T01:16:48.382Z,8.14
2019-02-26T01:19:19.731Z,8.11
2019-02-26T01:21:49.621Z,8.11
2019-02-26T01:24:21.392Z,8.11
2019-02-26T01:26:50.964Z,8.12
2019-02-26T01:29:22.940Z,8.12
2019-02-26T01:31:52.224Z,8.13
2019-02-26T01:34:21.838Z,8.13
2019-02-26T01:36:51.673Z,8.14
2019-02-26T01:39:24.480Z,8.13
2019-02-26T01:41:56.213Z,8.16
2019-02-26T01:44:30.143Z,8.15
2019-02-26T01:47:00.042Z,8.15
2019-02-26T01:49:29.602Z,8.12
2019-02-26T01:51:59.307Z,8.08
2019-02-26T01:54:30.621Z,8.08
2019-02-26T01:57:00.507Z,8.07
2019-02-26T01:59:33.586Z,8.03
2019-02-26T02:02:01.986Z,8.03
2019-02-26T02:04:34.097Z,8.00
2019-02-26T02:07:05.936Z,8.00
2019-02-26T02:09:35.197Z,7.93
2019-02-26T02:12:07.099Z,7.94
2019-02-26T02:14:36.930Z,7.94
2019-02-26T02:17:08.486Z,7.92
2019-02-26T02:19:39.077Z,7.87
2019-02-26T02:22:10.057Z,7.87
2019-02-26T02:24:41.829Z,7.99
2019-02-26T02:27:12.613Z,8.11
2019-02-26T02:29:45.729Z,8.18
2019-02-26T02:32:15.193Z,8.27
2019-02-26T02:34:44.850Z,8.27
2019-02-26T02:37:15.344Z,8.31
2019-02-26T02:39:48.828Z,8.36
2019-02-26T02:42:19.677Z,8.33
2019-02-26T02:44:53.377Z,8.30
2019-02-26T02:47:25.330Z,8.25
2019-02-26T02:49:54.986Z,8.25
2019-02-26T02:52:27.182Z,8.18
2019-02-26T02:54:56.091Z,8.18
2019-02-26T02:57:26.949Z,8.14
2019-02-26T02:59:59.825Z,8.12
2019-02-26T03:02:29.893Z,8.01
2019-02-26T03:04:59.674Z,8.01
2019-02-26T03:07:29.611Z,7.94
2019-02-26T03:10:03.936Z,7.94
2019-02-26T03:12:35.273Z,7.93
2019-02-26T03:15:07.474Z,7.93
2019-02-26T03:17:36.880Z,7.88
2019-02-26T03:20:08.213Z,7.83
2019-02-26T03:22:41.979Z,7.80
2019-02-26T03:25:14.883Z,7.81
2019-02-26T03:27:44.533Z,7.81
2019-02-26T03:30:26.325Z,7.77
2019-02-26T03:32:56.010Z,7.75
2019-02-26T03:35:23.101Z,7.72
2019-02-26T03:37:54.535Z,7.72
2019-02-26T03:40:24.885Z,7.76
2019-02-26T03:42:56.065Z,7.75
2019-02-26T03:45:25.857Z,7.74
2019-02-26T03:47:58.075Z,7.75
2019-02-26T03:50:27.260Z,7.72
2019-02-26T03:52:56.872Z,7.72
2019-02-26T03:55:27.152Z,7.67
2019-02-26T03:57:59.069Z,7.67
2019-02-26T04:00:28.328Z,7.67
2019-02-26T04:02:58.282Z,7.67
2019-02-26T04:05:28.013Z,7.65
2019-02-26T04:07:59.635Z,7.65
2019-02-26T04:10:29.281Z,7.73
2019-02-26T04:12:59.018Z,7.87
2019-02-26T04:15:31.030Z,7.87
2019-02-26T04:18:00.142Z,7.92
2019-02-26T04:20:30.272Z,7.84
2019-02-26T04:23:00.835Z,7.78
2019-02-26T04:25:51.492Z,7.81
2019-02-26T04:28:32.986Z,7.75
2019-02-26T04:31:41.524Z,7.75
2019-02-26T04:34:26.160Z,7.72
2019-02-26T04:37:10.324Z,7.65
2019-02-26T04:40:07.764Z,7.61
2019-02-26T04:43:38.900Z,7.51
2019-02-26T04:46:34.335Z,7.43
2019-02-26T04:49:05.106Z,7.43
2019-02-26T04:51:36.346Z,7.43
2019-02-26T04:54:06.773Z,7.43
2019-02-26T04:56:39.575Z,7.35
2019-02-26T04:59:09.796Z,7.32
2019-02-26T05:01:39.386Z,7.31
2019-02-26T05:04:09.127Z,7.31
2019-02-26T05:06:39.056Z,7.31
2019-02-26T05:09:10.630Z,7.31
2019-02-26T05:11:40.854Z,7.25
2019-02-26T05:14:11.708Z,7.26
2019-02-26T05:16:41.944Z,7.26
2019-02-26T05:19:13.579Z,7.26
2019-02-26T05:21:43.279Z,7.23
2019-02-26T05:24:14.987Z,7.23
2019-02-26T05:26:45.012Z,7.19
2019-02-26T05:29:15.247Z,7.18
2019-02-26T05:31:44.897Z,7.18
2019-02-26T05:34:17.729Z,7.15
2019-02-26T05:36:46.456Z,7.13
2019-02-26T05:39:21.121Z,7.13
2019-02-26T05:41:54.544Z,7.09
2019-02-26T05:44:22.573Z,7.08
2019-02-26T05:46:54.051Z,7.07
2019-02-26T05:49:23.621Z,7.06
2019-02-26T05:51:54.101Z,7.06
2019-02-26T05:54:24.624Z,7.05
2019-02-26T05:56:57.424Z,7.03
2019-02-26T05:59:27.058Z,6.97
2019-02-26T06:01:58.437Z,6.99
2019-02-26T06:04:34.578Z,7.00
2019-02-26T06:07:04.726Z,7.00
2019-02-26T06:09:35.000Z,6.97
2019-02-26T06:12:04.861Z,6.97
2019-02-26T06:14:36.357Z,6.90
2019-02-26T06:17:07.267Z,6.84
2019-02-26T06:19:44.980Z,6.84
2019-02-26T06:22:17.548Z,6.87
2019-02-26T06:24:46.001Z,6.87
2019-02-26T06:27:18.328Z,6.79
2019-02-26T06:29:46.969Z,6.87
2019-02-26T06:32:16.679Z,6.89
2019-02-26T06:34:46.129Z,6.89
2019-02-26T06:37:20.469Z,7.04
2019-02-26T06:39:52.607Z,7.04
2019-02-26T06:42:21.289Z,7.12
2019-02-26T06:44:51.427Z,7.15
2019-02-26T06:47:23.398Z,7.19
2019-02-26T06:49:52.734Z,7.22
2019-02-26T06:52:23.957Z,7.24
2019-02-26T06:54:57.283Z,7.24
2019-02-26T06:57:24.796Z,7.25
2019-02-26T06:59:56.371Z,7.30
2019-02-26T07:02:28.361Z,7.34
2019-02-26T07:04:57.128Z,7.34
2019-02-26T07:07:27.086Z,7.41
2019-02-26T07:12:22.190Z,7.81
2019-02-26T07:14:53.546Z,7.96
2019-02-26T07:17:23.371Z,7.96
2019-02-26T07:19:55.451Z,7.98
2019-02-26T07:22:24.194Z,7.89
2019-02-26T07:24:53.953Z,7.87
2019-02-26T07:27:26.502Z,7.92
2019-02-26T07:29:58.501Z,7.97
2019-02-26T07:32:28.385Z,8.02
2019-02-26T07:34:58.186Z,8.01
2019-02-26T07:37:28.712Z,8.01
2019-02-26T07:39:59.179Z,8.02
2019-02-26T07:42:32.759Z,8.10
2019-02-26T07:45:02.004Z,8.17
2019-02-26T07:47:33.782Z,8.25
2019-02-26T07:50:04.675Z,8.44
2019-02-26T07:52:36.629Z,8.44
2019-02-26T07:55:09.150Z,8.54
2019-02-26T07:57:40.338Z,8.54
2019-02-26T08:00:11.311Z,8.63
2019-02-26T08:02:40.759Z,8.76
2019-02-26T08:05:10.906Z,8.97
2019-02-26T08:07:40.752Z,9.09
2019-02-26T08:10:14.619Z,9.09
2019-02-26T08:12:45.383Z,9.32
2019-02-26T08:15:16.325Z,9.44
2019-02-26T08:17:53.253Z,9.44
2019-02-26T08:20:20.044Z,9.71
2019-02-26T08:22:51.607Z,9.71
2019-02-26T08:25:21.445Z,9.83
2019-02-26T08:27:52.141Z,9.94
2019-02-26T08:30:24.194Z,10.19
2019-02-26T08:32:59.778Z,10.31
2019-02-26T08:35:32.952Z,10.44
2019-02-26T08:38:05.658Z,10.53
2019-02-26T08:40:33.941Z,10.72
2019-02-26T08:43:03.421Z,10.80
2019-02-26T08:45:33.140Z,10.99
2019-02-26T08:48:02.802Z,11.22
2019-02-26T08:50:33.961Z,11.22
2019-02-26T08:53:04.258Z,11.48
2019-02-26T08:55:34.145Z,11.60
2019-02-26T08:58:12.541Z,11.75
2019-02-26T09:00:42.066Z,11.87
2019-02-26T09:03:13.375Z,12.08
2019-02-26T09:05:43.145Z,12.19
2019-02-26T09:08:15.397Z,12.31
2019-02-26T09:10:46.943Z,12.44
2019-02-26T09:13:18.700Z,12.44
2019-02-26T09:15:48.319Z,12.73
2019-02-26T09:18:20.234Z,12.90
2019-02-26T09:20:49.408Z,12.90
2019-02-26T09:23:21.200Z,12.99
2019-02-26T09:25:54.149Z,13.10
2019-02-26T09:28:22.323Z,13.25
2019-02-26T09:30:53.740Z,13.35
2019-02-26T09:33:27.553Z,13.52
2019-02-26T09:35:56.753Z,13.62
2019-02-26T09:38:26.730Z,13.75
2019-02-26T09:40:57.117Z,13.81
2019-02-26T09:43:28.698Z,13.91
2019-02-26T09:45:58.220Z,14.09
2019-02-26T09:48:28.088Z,14.09
2019-02-26T09:51:00.434Z,14.19
2019-02-26T09:53:30.229Z,14.19
2019-02-26T09:56:00.293Z,14.38
2019-02-26T09:58:30.092Z,14.38
2019-02-26T10:00:59.583Z,14.59
2019-02-26T10:03:32.056Z,14.65
2019-02-26T10:06:00.839Z,14.65
2019-02-26T10:08:30.713Z,14.80
2019-02-26T10:11:02.249Z,14.85
2019-02-26T10:13:31.464Z,14.88
2019-02-26T10:16:03.821Z,14.88
2019-02-26T10:18:33.084Z,15.04
2019-02-26T10:21:08.559Z,15.20
2019-02-26T10:23:37.642Z,15.16
2019-02-26T10:26:08.412Z,15.26
2019-02-26T10:28:42.054Z,15.26
2019-02-26T10:31:10.393Z,15.45
2019-02-26T10:33:41.141Z,15.45
2019-02-26T10:36:13.459Z,15.41
2019-02-26T10:38:42.311Z,15.46
2019-02-26T10:41:11.981Z,15.46
2019-02-26T10:43:47.701Z,15.56
2019-02-26T10:46:17.933Z,15.61
2019-02-26T10:48:48.560Z,15.71
2019-02-26T10:51:26.006Z,15.71
2019-02-26T10:53:50.950Z,15.81
2019-02-26T10:56:20.420Z,15.83
2019-02-26T10:58:57.310Z,15.95
2019-02-26T11:01:27.578Z,15.95
2019-02-26T11:03:55.589Z,15.95
2019-02-26T11:06:33.159Z,15.98
2019-02-26T11:09:02.796Z,16.02
2019-02-26T11:11:32.905Z,16.03
2019-02-26T11:14:05.269Z,16.16
2019-02-26T11:16:35.842Z,16.22
2019-02-26T11:19:07.597Z,16.20
2019-02-26T11:21:38.017Z,16.20
2019-02-26T11:24:11.275Z,16.28
2019-02-26T11:26:41.423Z,16.42
2019-02-26T11:29:12.192Z,16.42
2019-02-26T11:34:13.850Z,16.87
2019-02-26T11:36:43.396Z,16.97
2019-02-26T11:39:12.953Z,16.93
2019-02-26T11:41:42.457Z,16.84
2019-02-26T11:44:15.103Z,16.80
2019-02-26T11:46:46.177Z,16.80
2019-02-26T11:49:21.825Z,16.68
2019-02-26T11:51:53.708Z,16.87
2019-02-26T11:54:22.959Z,16.93
2019-02-26T11:56:54.726Z,16.93
2019-02-26T11:59:24.755Z,16.90
2019-02-26T12:01:56.384Z,16.98
2019-02-26T12:04:25.624Z,16.94
2019-02-26T12:06:55.900Z,17.07
2019-02-26T12:09:29.240Z,17.07
2019-02-26T12:11:58.981Z,17.18
2019-02-26T12:14:29.518Z,17.18
2019-02-26T12:16:59.428Z,17.19
2019-02-26T12:19:31.196Z,17.20
2019-02-26T12:22:09.092Z,17.28
2019-02-26T12:24:39.327Z,17.33
2019-02-26T12:29:40.699Z,17.36
2019-02-26T12:32:11.972Z,17.36
2019-02-26T12:34:44.670Z,17.31
2019-02-26T12:37:14.341Z,17.28
2019-02-26T12:39:46.971Z,17.32
2019-02-26T12:42:18.722Z,17.40
2019-02-26T12:44:49.117Z,17.40
2019-02-26T12:47:22.792Z,17.38
2019-02-26T12:49:52.850Z,17.46
2019-02-26T12:52:26.493Z,17.53
2019-02-26T12:54:54.949Z,17.47
2019-02-26T12:57:27.024Z,17.53
2019-02-26T12:59:56.996Z,17.53
2019-02-26T13:02:26.757Z,17.53
2019-02-26T13:04:56.256Z,17.39
2019-02-26T13:07:26.303Z,17.62
2019-02-26T13:10:02.762Z,17.62
2019-02-26T13:12:32.185Z,17.62
2019-02-26T13:15:05.331Z,17.70
2019-02-26T13:17:32.498Z,17.64
2019-02-26T13:20:05.822Z,17.74
2019-02-26T13:22:33.957Z,17.74
2019-02-26T13:25:08.261Z,17.83
2019-02-26T13:27:35.952Z,17.79
2019-02-26T13:30:07.589Z,17.79
2019-02-26T13:32:55.129Z,17.88
2019-02-26T13:35:09.952Z,17.88
2019-02-26T13:37:42.109Z,17.82
2019-02-26T13:40:14.111Z,17.83
2019-02-26T13:42:49.924Z,17.83
2019-02-26T13:45:20.340Z,18.02
2019-02-26T13:47:49.933Z,18.05
2019-02-26T13:50:23.278Z,18.05
2019-02-26T13:52:53.514Z,17.98
2019-02-26T13:55:23.528Z,17.98
2019-02-26T13:57:53.028Z,18.06
2019-02-26T14:00:26.358Z,18.17
2019-02-26T14:02:53.887Z,18.17
2019-02-26T14:05:23.694Z,18.04
2019-02-26T14:07:56.370Z,18.04
2019-02-26T14:10:27.131Z,18.11
2019-02-26T14:12:57.069Z,18.04
2019-02-26T14:15:27.696Z,18.12
2019-02-26T14:18:00.958Z,18.13
2019-02-26T14:20:33.140Z,18.21
2019-02-26T14:23:03.785Z,18.21
2019-02-26T14:25:36.084Z,18.01
2019-02-26T14:28:07.143Z,17.90
2019-02-26T14:30:37.161Z,18.07
2019-02-26T14:33:11.109Z,18.18
2019-02-26T14:35:45.598Z,18.11
2019-02-26T14:38:19.265Z,18.06
2019-02-26T14:40:51.904Z,18.09
2019-02-26T14:43:23.083Z,18.05
2019-02-26T14:45:53.419Z,18.04
2019-02-26T14:48:23.773Z,18.04
2019-02-26T14:50:55.049Z,17.92
2019-02-26T14:53:25.133Z,17.92
2019-02-26T14:55:57.126Z,18.10
2019-02-26T14:58:26.756Z,18.09
2019-02-26T15:00:57.939Z,18.15
2019-02-26T15:03:27.757Z,18.07
2019-02-26T15:05:57.357Z,18.07
2019-02-26T15:08:27.218Z,18.00
2019-02-26T15:10:56.970Z,18.00
2019-02-26T15:13:29.393Z,18.14
2019-02-26T15:16:02.226Z,18.07
2019-02-26T15:18:32.157Z,18.00
2019-02-26T15:21:01.742Z,17.96
2019-02-26T15:23:31.394Z,17.99
2019-02-26T15:26:01.649Z,17.92
2019-02-26T15:28:31.223Z,17.90
2019-02-26T15:31:03.274Z,17.90
2019-02-26T15:33:34.343Z,17.91
2019-02-26T15:36:04.388Z,17.76
2019-02-26T15:38:34.547Z,17.76
2019-02-26T15:41:04.423Z,17.80
2019-02-26T15:43:34.153Z,17.78
2019-02-26T15:46:03.715Z,17.78
2019-02-26T15:48:36.038Z,17.58
2019-02-26T15:51:14.138Z,17.55
2019-02-26T15:53:39.142Z,17.48
2019-02-26T15:56:08.717Z,17.34
2019-02-26T15:58:38.398Z,17.35
2019-02-26T16:01:12.848Z,17.35
2019-02-26T16:03:42.413Z,17.27
2019-02-26T16:06:12.125Z,17.18
2019-02-26T16:08:43.367Z,17.13
2019-02-26T16:11:14.050Z,17.07
2019-02-26T16:13:43.845Z,16.98
2019-02-26T16:16:14.002Z,16.94
2019-02-26T16:18:43.520Z,16.75
2019-02-26T16:21:18.675Z,16.75
2019-02-26T16:23:47.473Z,16.60
2019-02-26T16:26:17.022Z,16.48
2019-02-26T16:28:46.715Z,16.48
2019-02-26T16:31:16.539Z,16.39
2019-02-26T16:33:46.701Z,16.39
2019-02-26T16:36:17.080Z,16.30
2019-02-26T16:38:50.722Z,16.13
2019-02-26T16:41:17.803Z,15.98
2019-02-26T16:43:51.618Z,15.98
2019-02-26T16:46:18.917Z,15.91
2019-02-26T16:48:48.535Z,15.77
2019-02-26T16:51:20.955Z,15.71
2019-02-26T16:53:49.748Z,15.71
2019-02-26T16:56:21.465Z,15.46
2019-02-26T16:58:54.104Z,15.46
2019-02-26T17:01:24.089Z,15.35
2019-02-26T17:03:54.323Z,15.21
2019-02-26T17:06:24.500Z,15.10
2019-02-26T17:08:56.054Z,14.87
2019-02-26T17:11:25.587Z,14.73
2019-02-26T17:13:55.062Z,14.59
2019-02-26T17:16:24.846Z,14.59
2019-02-26T17:18:54.839Z,14.31
2019-02-26T17:21:24.742Z,14.31
2019-02-26T17:23:54.322Z,14.23
2019-02-26T17:26:24.424Z,14.05
2019-02-26T17:28:54.172Z,13.97
2019-02-26T17:31:23.719Z,13.93
2019-02-26T17:33:55.110Z,13.93
2019-02-26T17:36:26.998Z,13.69
2019-02-26T17:38:57.318Z,13.69
2019-02-26T17:41:27.009Z,13.52
2019-02-26T17:43:59.617Z,13.44
2019-02-26T17:46:28.669Z,13.32
2019-02-26T17:49:02.669Z,13.24
2019-02-26T17:51:29.779Z,13.16
2019-02-26T17:53:59.319Z,13.06
2019-02-26T17:56:29.336Z,13.06
2019-02-26T17:59:01.130Z,12.93
2019-02-26T18:01:30.948Z,12.77
2019-02-26T18:04:00.614Z,12.77
2019-02-26T18:06:34.477Z,12.65
2019-02-26T18:09:04.473Z,12.46
2019-02-26T18:11:34.407Z,12.46
2019-02-26T18:14:03.900Z,12.40
2019-02-26T18:16:34.378Z,12.37
2019-02-26T18:19:12.093Z,12.23
2019-02-26T18:21:38.895Z,12.23
2019-02-26T18:24:09.468Z,12.28
2019-02-26T18:26:39.330Z,12.19
2019-02-26T18:29:13.034Z,12.19
2019-02-26T18:31:42.868Z,12.08
2019-02-26T18:34:13.998Z,12.08
2019-02-26T18:36:47.270Z,12.06
2019-02-26T18:39:17.028Z,11.96
2019-02-26T18:41:50.684Z,11.96
2019-02-26T18:44:20.520Z,11.88
2019-02-26T18:46:49.554Z,11.82
2019-02-26T18:49:21.458Z,11.79
2019-02-26T18:51:50.235Z,11.73
2019-02-26T18:54:21.116Z,11.73
2019-02-26T18:56:50.974Z,11.63
2019-02-26T18:59:21.579Z,11.56
2019-02-26T19:01:52.104Z,11.53
2019-02-26T19:04:26.762Z,11.53
2019-02-26T19:06:59.461Z,11.39
2019-02-26T19:09:29.493Z,11.39
2019-02-26T19:11:59.466Z,11.18
2019-02-26T19:14:29.786Z,11.18
2019-02-26T19:17:00.331Z,11.22
2019-02-26T19:19:30.156Z,11.19
2019-02-26T19:22:00.244Z,11.13
2019-02-26T19:24:29.820Z,11.11
2019-02-26T19:27:02.218Z,11.08
2019-02-26T19:29:32.101Z,11.01
2019-02-26T19:32:05.382Z,10.96
2019-02-26T19:34:35.763Z,10.91
2019-02-26T19:37:05.749Z,10.85
2019-02-26T19:39:35.675Z,10.83
2019-02-26T19:42:05.513Z,10.80
2019-02-26T19:44:35.984Z,10.76
2019-02-26T19:47:06.004Z,10.70
2019-02-26T19:49:39.786Z,10.60
2019-02-26T19:52:08.865Z,10.60
2019-02-26T19:54:41.613Z,10.50
2019-02-26T19:57:12.303Z,10.50
2019-02-26T19:59:46.611Z,10.43
2019-02-26T20:02:13.510Z,10.43
2019-02-26T20:04:43.846Z,10.37
2019-02-26T20:07:13.311Z,10.33
2019-02-26T20:09:44.224Z,10.31
2019-02-26T20:12:16.867Z,10.31
2019-02-26T20:14:48.824Z,10.18
2019-02-26T20:17:18.340Z,10.18
2019-02-26T20:19:48.054Z,10.12
2019-02-26T20:22:19.336Z,10.12
2019-02-26T20:24:49.259Z,10.13
2019-02-26T20:27:21.678Z,10.09
2019-02-26T20:29:50.155Z,10.09
2019-02-26T20:32:21.671Z,10.05
2019-02-26T20:34:52.765Z,10.05
2019-02-26T20:37:24.462Z,10.05
2019-02-26T20:39:56.717Z,10.00
2019-02-26T20:42:26.745Z,9.96
2019-02-26T20:45:00.754Z,9.94
2019-02-26T20:47:31.625Z,9.95
2019-02-26T20:50:06.134Z,9.95
2019-02-26T20:52:38.095Z,9.93
2019-02-26T20:55:09.387Z,9.92
2019-02-26T20:57:40.407Z,9.92
2019-02-26T21:00:15.957Z,9.95
2019-02-26T21:02:45.724Z,9.94
2019-02-26T21:05:15.714Z,9.94
2019-02-26T21:07:46.139Z,9.92
2019-02-26T21:10:16.202Z,9.97
2019-02-26T21:12:46.802Z,9.97
2019-02-26T21:15:18.044Z,9.97
2019-02-26T21:17:48.091Z,9.99
2019-02-26T21:20:21.251Z,10.02
2019-02-26T21:22:54.662Z,10.08
2019-02-26T21:25:26.280Z,10.08
2019-02-26T21:27:56.259Z,10.11
2019-02-26T21:30:26.113Z,10.14
2019-02-26T21:32:58.070Z,10.13
2019-02-26T21:35:28.069Z,10.13
2019-02-26T21:37:58.149Z,10.13
2019-02-26T21:40:28.182Z,10.14
2019-02-26T21:43:01.600Z,10.12
2019-02-26T21:45:30.349Z,10.12
2019-02-26T21:48:02.490Z,10.11
2019-02-26T21:50:31.370Z,10.10
2019-02-26T21:53:01.741Z,10.07
2019-02-26T21:55:36.631Z,10.07
2019-02-26T21:58:02.989Z,10.05
2019-02-26T22:00:32.900Z,10.05
2019-02-26T22:03:06.562Z,10.05
2019-02-26T22:05:37.931Z,10.04
2019-02-26T22:08:08.308Z,10.04
2019-02-26T22:10:42.513Z,10.04
2019-02-26T22:13:10.469Z,10.06
2019-02-26T22:15:42.122Z,10.08
2019-02-26T22:18:12.501Z,10.08
2019-02-26T22:20:42.512Z,10.08
2019-02-26T22:23:12.440Z,10.15
2019-02-26T22:25:42.506Z,10.15
2019-02-26T22:28:12.771Z,10.13
2019-02-26T22:30:42.774Z,10.13
2019-02-26T22:33:12.601Z,10.15
2019-02-26T22:35:46.031Z,10.15
2019-02-26T22:38:16.112Z,10.16
2019-02-26T22:40:45.747Z,10.14
2019-02-26T22:43:16.183Z,10.14
2019-02-26T22:45:46.212Z,10.14
2019-02-26T22:48:16.235Z,10.14
2019-02-26T22:50:46.348Z,10.20
2019-02-26T22:53:16.002Z,10.16
2019-02-26T22:55:49.622Z,10.16
2019-02-26T22:58:17.059Z,10.13
2019-02-26T23:01:14.256Z,10.13
2019-02-26T23:03:46.045Z,10.12
2019-02-26T23:06:16.457Z,10.13
2019-02-26T23:08:46.052Z,10.12
2019-02-26T23:11:20.649Z,10.08
2019-02-26T23:13:53.427Z,10.06
2019-02-26T23:16:24.071Z,10.06
2019-02-26T23:18:53.881Z,10.12
2019-02-26T23:21:23.663Z,10.12
2019-02-26T23:23:55.430Z,10.11
2019-02-26T23:26:25.640Z,10.12
2019-02-26T23:28:58.916Z,10.09
2019-02-26T23:31:32.719Z,10.09
2019-02-26T23:34:00.340Z,10.12
2019-02-26T23:36:32.261Z,10.07
2019-02-26T23:39:02.394Z,10.07
2019-02-26T23:41:33.090Z,10.04
2019-02-26T23:44:03.663Z,10.03
2019-02-26T23:46:33.340Z,10.03
2019-02-26T23:49:03.486Z,9.99
2019-02-26T23:51:33.021Z,9.99
2019-02-26T23:54:04.670Z,9.97
2019-02-26T23:56:34.008Z,9.91
2019-02-26T23:59:04.270Z,9.85
